M I D A S
Marine Information and Data Acquisition System
Tripno 314 of the Zeeleeuw from 2002-02-28 07:05:00 to 2002-02-28 17:03:23
Back to CruiseResearch ActivitiesStationsMapUnderway DataData graphs

EquipmentUnitsComments
TimeDGPSUTC
LatitudeDGPSDM.mWGS84
LongitudeDGPSDM.mWGS84
SpeedMeteo Stationm/sRelative wind speed
DirectionMeteo StationdegRelative wind direction
TemperatureMeteo Stationdeg CelciusAir temperature
PressureMeteo StationPaAtmospheric pressure
HumidityMeteo Station%Relative humidity
Missing or incorrect values are displayed as -999
Metereological data collected by the RV Zeeleeuw from 2002-02-28 07:05:00 to 2002-02-28 17:03:23
Time Latitude Longitude Speed Direction Temperature Pressure Humidity
2002-02-28 07:06 51°13.689 2°55.899 4.7 22 3.3 99680 86
2002-02-28 07:07 51°13.706 2°55.807 4.8 11 3.3 99670 85
2002-02-28 07:08 51°13.715 2°55.726 4.2 17 3.3 99680 85
2002-02-28 07:09 51°13.747 2°55.698 2.2 329 3.4 99670 86
2002-02-28 07:10 51°13.882 2°55.594 4.8 190 3.5 99680 86
2002-02-28 07:11 51°14.036 2°55.481 5.4 207 3.5 99680 85
2002-02-28 07:12 51°14.158 2°55.386 3.9 216 3.5 99680 85
2002-02-28 07:13 51°14.272 2°55.246 6.6 175 3.5 99670 85
2002-02-28 07:14 51°14.371 2°55.065 7.3 187 3.6 99670 85
2002-02-28 07:15 51°14.477 2°54.845 9.7 203 3.6 99650 85
2002-02-28 07:16 51°14.583 2°54.573 12.5 203 3.7 99650 86
2002-02-28 07:17 51°14.711 2°54.288 4.4 243 3.8 99640 86
2002-02-28 07:18 51°14.89 2°54.08 2.5 236 3.9 99650 86
2002-02-28 07:19 51°15.082 2°53.923 7.5 201 3.9 99660 86
2002-02-28 07:20 51°15.27 2°53.743 3 206 4 99660 86
2002-02-28 07:21 51°15.473 2°53.592 4 248 4.1 99660 86
2002-02-28 07:22 51°15.681 2°53.444 2.9 220 4.2 99650 87
2002-02-28 07:23 51°15.886 2°53.292 2.8 228 4.3 99650 87
2002-02-28 07:24 51°16.088 2°53.139 1.6 226 4.4 99650 87
2002-02-28 07:25 51°16.293 2°53.004 2.6 220 4.5 99670 87
2002-02-28 07:26 51°16.498 2°52.869 3.1 196 4.7 99650 87
2002-02-28 07:27 51°16.701 2°52.737 5.8 208 4.7 99650 86
2002-02-28 07:28 51°16.901 2°52.616 1.8 239 4.8 99660 86
2002-02-28 07:29 51°17.1 2°52.493 4.3 193 5 99660 86
2002-02-28 07:30 51°17.301 2°52.368 4.4 233 5 99650 86
2002-02-28 07:31 51°17.491 2°52.195 5.7 134 5.1 99660 85
2002-02-28 07:32 51°17.671 2°51.996 4 198 5.1 99640 85
2002-02-28 07:33 51°17.843 2°51.788 10.2 211 5.1 99660 84
2002-02-28 07:34 51°17.946 2°51.483 15.6 196 5.2 99590 85
2002-02-28 07:35 51°18.037 2°51.157 17 203 5.2 99610 85
2002-02-28 07:36 51°18.116 2°50.828 18.6 198 5.3 99610 85
2002-02-28 07:37 51°18.186 2°50.481 19.7 197 5.3 99550 84
2002-02-28 07:38 51°18.255 2°50.168 18.5 205 5.3 99550 84
2002-02-28 07:39 51°18.282 2°49.993 17.2 201 5.4 99610 84
2002-02-28 07:40 51°18.29 2°49.892 16 189 5.4 99620 84
2002-02-28 07:41 51°18.286 2°49.836 16.3 199 5.5 99590 85
2002-02-28 07:42 51°18.289 2°49.836 6.7 327 5.5 99580 84
2002-02-28 07:43 51°18.284 2°49.845 13.8 257 5.5 99610 84
2002-02-28 07:44 51°18.281 2°49.849 15.8 249 5.4 99600 83
2002-02-28 07:45 51°18.28 2°49.851 7.8 237 5.4 99590 84
2002-02-28 07:46 51°18.278 2°49.853 2 232 5.4 99600 83
2002-02-28 07:47 51°18.27 2°49.864 13.8 265 5.5 99600 84
2002-02-28 07:48 51°18.271 2°49.862 4 318 5.4 99640 84
2002-02-28 07:49 51°18.272 2°49.859 3.7 233 5.3 99630 84
2002-02-28 07:50 51°18.274 2°49.856 4.1 246 5.3 99650 83
2002-02-28 07:51 51°18.276 2°49.854 2 259 5.3 99660 84
2002-02-28 07:52 51°18.276 2°49.853 1.6 254 5.5 99640 85
2002-02-28 07:53 51°18.276 2°49.851 3.3 219 5.5 99650 85
2002-02-28 07:54 51°18.277 2°49.85 4.6 256 5.5 99630 85
2002-02-28 07:55 51°18.277 2°49.848 2.5 230 5.5 99640 84
2002-02-28 07:56 51°18.276 2°49.847 5.2 249 5.5 99630 85
2002-02-28 07:57 51°18.276 2°49.843 1.3 242 5.5 99650 85
2002-02-28 07:58 51°18.277 2°49.841 5.9 229 5.4 99650 84
2002-02-28 07:59 51°18.278 2°49.839 4.7 322 5.3 99610 84
2002-02-28 08:00 51°18.278 2°49.836 4.6 221 5.4 99590 85
2002-02-28 08:01 51°18.276 2°49.836 10 241 5.5 99600 86
2002-02-28 08:02 51°18.273 2°49.838 3.2 244 5.3 99600 85
2002-02-28 08:03 51°18.272 2°49.838 2.5 214 5.5 99600 85
2002-02-28 08:04 51°18.271 2°49.835 4 226 5.5 99600 86
2002-02-28 08:05 51°18.27 2°49.832 4.2 250 5.5 99600 85
2002-02-28 08:06 51°18.272 2°49.828 3.9 236 5.5 99610 85
2002-02-28 08:07 51°18.274 2°49.823 4.3 249 5.4 99590 85
2002-02-28 08:08 51°18.276 2°49.821 2.9 241 5.4 99590 85
2002-02-28 08:09 51°18.275 2°49.822 4.9 241 5.4 99600 85
2002-02-28 08:10 51°18.273 2°49.828 5.9 234 5.5 99590 86
2002-02-28 08:11 51°18.271 2°49.83 4.2 241 5.4 99590 85
2002-02-28 08:12 51°18.271 2°49.827 3.1 234 5.4 99580 85
2002-02-28 08:13 51°18.272 2°49.822 3.9 128 5.5 99610 85
2002-02-28 08:14 51°18.273 2°49.821 5.7 318 5.4 99600 85
2002-02-28 08:15 51°18.274 2°49.82 3.4 237 5.4 99600 85
2002-02-28 08:16 51°18.271 2°49.82 3.7 239 5.6 99610 85
2002-02-28 08:17 51°18.271 2°49.823 10.5 252 5.6 99600 85
2002-02-28 08:18 51°18.271 2°49.823 7.2 248 5.5 99620 85
2002-02-28 08:19 51°18.271 2°49.818 5.5 244 5.6 99620 85
2002-02-28 08:20 51°18.273 2°49.815 1.8 241 5.4 99610 84
2002-02-28 08:21 51°18.274 2°49.814 2.2 231 5.4 99600 85
2002-02-28 08:22 51°18.274 2°49.815 5 210 5.4 99620 85
2002-02-28 08:23 51°18.271 2°49.814 5.4 247 5.4 99630 85
2002-02-28 08:24 51°18.271 2°49.814 3.3 246 5.4 99610 85
2002-02-28 08:25 51°18.271 2°49.812 5.8 235 5.4 99640 86
2002-02-28 08:26 51°18.272 2°49.809 3.9 234 5.4 99620 85
2002-02-28 08:27 51°18.272 2°49.807 3.2 229 5.4 99620 85
2002-02-28 08:28 51°18.272 2°49.806 7.6 259 5.4 99630 85
2002-02-28 08:29 51°18.271 2°49.804 4 239 5.4 99620 85
2002-02-28 08:30 51°18.27 2°49.804 4.1 223 5.4 99620 85
2002-02-28 08:31 51°18.269 2°49.807 3.3 232 5.4 99610 85
2002-02-28 08:32 51°18.268 2°49.807 2 219 5.4 99620 85
2002-02-28 08:33 51°18.268 2°49.805 2.8 221 5.4 99630 85
2002-02-28 08:34 51°18.267 2°49.802 11.3 258 5.4 99620 85
2002-02-28 08:35 51°18.267 2°49.802 5.2 228 5.4 99610 85
2002-02-28 08:36 51°18.266 2°49.802 3.8 250 5.4 99620 85
2002-02-28 08:37 51°18.266 2°49.8 12.5 251 5.4 99610 85
2002-02-28 08:38 51°18.266 2°49.797 4.7 244 5.4 99620 85
2002-02-28 08:39 51°18.265 2°49.797 5.1 247 5.4 99610 85
2002-02-28 08:40 51°18.264 2°49.795 3.6 246 5.3 99610 84
2002-02-28 08:41 51°18.264 2°49.796 3 240 5.4 99640 85
2002-02-28 08:42 51°18.263 2°49.797 5.4 255 5.5 99650 85
2002-02-28 08:43 51°18.263 2°49.795 5 229 5.4 99640 85
2002-02-28 08:44 51°18.265 2°49.796 3.7 285 5.3 99630 85
2002-02-28 08:45 51°18.265 2°49.795 4.1 247 5.4 99650 85
2002-02-28 08:46 51°18.266 2°49.793 4.9 227 5.3 99630 85
2002-02-28 08:47 51°18.266 2°49.796 4.7 240 5.3 99630 85
2002-02-28 08:48 51°18.265 2°49.799 4.4 228 5.3 99650 85
2002-02-28 08:49 51°18.264 2°49.801 2.4 254 5.3 99650 85
2002-02-28 08:50 51°18.261 2°49.805 3.1 253 5.2 99640 85
2002-02-28 08:51 51°18.261 2°49.805 2.7 243 5.2 99660 85
2002-02-28 08:52 51°18.26 2°49.805 3.7 266 5.2 99650 86
2002-02-28 08:53 51°18.261 2°49.804 3.2 237 5.3 99660 86
2002-02-28 08:54 51°18.261 2°49.803 3.6 249 5.2 99650 86
2002-02-28 08:55 51°18.262 2°49.802 3.6 240 5.2 99650 86
2002-02-28 08:56 51°18.263 2°49.802 3 231 5.2 99640 86
2002-02-28 08:57 51°18.262 2°49.804 5.2 244 5.2 99650 86
2002-02-28 08:58 51°18.263 2°49.805 4.4 134 5.2 99660 86
2002-02-28 08:59 51°18.26 2°49.809 3.8 246 5.3 99650 86
2002-02-28 09:00 51°18.257 2°49.81 4.1 238 5.4 99670 86
2002-02-28 09:01 51°18.26 2°49.806 4.7 327 5.3 99680 86
2002-02-28 09:02 51°18.263 2°49.8 3.6 202 5.3 99670 86
2002-02-28 09:03 51°18.265 2°49.797 5.1 252 5.3 99670 86
2002-02-28 09:04 51°18.265 2°49.799 4.3 253 5.3 99640 86
2002-02-28 09:05 51°18.262 2°49.803 4.9 176 5.3 99660 86
2002-02-28 09:06 51°18.26 2°49.806 6.7 240 5.4 99670 87
2002-02-28 09:07 51°18.261 2°49.807 4.7 233 5.3 99670 86
2002-02-28 09:08 51°18.261 2°49.806 2.1 302 5.3 99660 86
2002-02-28 09:09 51°18.261 2°49.805 4.1 233 5.4 99680 87
2002-02-28 09:10 51°18.261 2°49.804 5.2 234 5.4 99680 87
2002-02-28 09:11 51°18.261 2°49.803 3.4 231 5.5 99680 87
2002-02-28 09:12 51°18.26 2°49.804 5.2 229 5.6 99680 87
2002-02-28 09:13 51°18.26 2°49.805 1.8 236 5.6 99710 87
2002-02-28 09:14 51°18.261 2°49.804 2 243 5.5 99710 86
2002-02-28 09:15 51°18.263 2°49.799 6.7 232 5.5 99710 87
2002-02-28 09:16 51°18.265 2°49.797 4.2 235 5.5 99700 86
2002-02-28 09:17 51°18.267 2°49.796 1.2 253 5.5 99690 86
2002-02-28 09:18 51°18.268 2°49.794 4.7 229 5.5 99710 86
2002-02-28 09:19 51°18.268 2°49.798 1.8 220 5.4 99700 86
2002-02-28 09:20 51°18.266 2°49.803 4.7 228 5.4 99720 86
2002-02-28 09:21 51°18.263 2°49.811 2.2 232 5.3 99710 85
2002-02-28 09:22 51°18.261 2°49.815 3.6 248 5.4 99720 85
2002-02-28 09:23 51°18.26 2°49.816 1.2 319 5.3 99720 85
2002-02-28 09:24 51°18.261 2°49.816 4.2 268 5.3 99710 85
2002-02-28 09:25 51°18.262 2°49.817 4.9 236 5.3 99700 85
2002-02-28 09:26 51°18.262 2°49.818 2.8 265 5.4 99720 86
2002-02-28 09:27 51°18.262 2°49.818 3.2 221 5.3 99690 85
2002-02-28 09:28 51°18.263 2°49.819 5.8 232 5.4 99720 86
2002-02-28 09:29 51°18.263 2°49.823 4.1 222 5.5 99730 86
2002-02-28 09:30 51°18.261 2°49.829 2.7 222 5.4 99700 86
2002-02-28 09:31 51°18.261 2°49.827 4.2 268 5.5 99720 86
2002-02-28 09:32 51°18.262 2°49.828 4.8 224 5.4 99710 86
2002-02-28 09:33 51°18.262 2°49.83 7.8 216 5.4 99730 86
2002-02-28 09:34 51°18.261 2°49.833 2.9 244 5.3 99720 86
2002-02-28 09:35 51°18.261 2°49.832 2.7 252 5.3 99720 86
2002-02-28 09:36 51°18.261 2°49.835 3.5 318 5.4 99730 87
2002-02-28 09:37 51°18.26 2°49.837 4.5 249 5.4 99730 86
2002-02-28 09:38 51°18.262 2°49.836 3.2 255 5.4 99730 87
2002-02-28 09:39 51°18.264 2°49.837 5.7 243 5.4 99720 86
2002-02-28 09:40 51°18.263 2°49.839 2.6 321 5.4 99740 87
2002-02-28 09:41 51°18.262 2°49.839 3.1 316 5.5 99730 87
2002-02-28 09:42 51°18.263 2°49.839 7 213 5.6 99740 87
2002-02-28 09:43 51°18.263 2°49.84 3.2 245 5.6 99750 87
2002-02-28 09:44 51°18.264 2°49.841 5.4 210 5.6 99740 87
2002-02-28 09:45 51°18.264 2°49.841 3.8 233 5.6 99750 86
2002-02-28 09:46 51°18.266 2°49.842 5.8 220 5.7 99760 87
2002-02-28 09:47 51°18.268 2°49.843 1.6 132 5.6 99740 86
2002-02-28 09:48 51°18.27 2°49.845 8.5 225 5.6 99750 86
2002-02-28 09:49 51°18.271 2°49.849 4.7 216 5.6 99730 86
2002-02-28 09:50 51°18.272 2°49.855 4.2 256 5.6 99750 86
2002-02-28 09:51 51°18.274 2°49.86 2.1 248 5.6 99730 86
2002-02-28 09:52 51°18.276 2°49.862 7.9 242 5.7 99750 86
2002-02-28 09:53 51°18.277 2°49.866 4.5 263 5.6 99750 86
2002-02-28 09:54 51°18.278 2°49.869 9 202 5.7 99760 87
2002-02-28 09:55 51°18.278 2°49.871 6.3 201 5.8 99750 87
2002-02-28 09:56 51°18.282 2°49.873 9 236 5.8 99750 86
2002-02-28 09:57 51°18.284 2°49.874 9.4 207 5.9 99760 87
2002-02-28 09:58 51°18.285 2°49.876 8.3 210 5.9 99750 87
2002-02-28 09:59 51°18.287 2°49.878 7.1 213 5.9 99760 86
2002-02-28 10:00 51°18.29 2°49.881 11.5 217 5.9 99760 87
2002-02-28 10:01 51°18.291 2°49.88 8.3 203 6 99770 87
2002-02-28 10:02 51°18.294 2°49.88 10.6 220 5.9 99760 87
2002-02-28 10:03 51°18.297 2°49.88 7.7 203 5.8 99760 86
2002-02-28 10:04 51°18.299 2°49.881 14 200 5.9 99760 87
2002-02-28 10:05 51°18.301 2°49.878 15 204 5.8 99760 87
2002-02-28 10:06 51°18.304 2°49.876 15.7 201 5.8 99740 86
2002-02-28 10:07 51°18.305 2°49.876 14.9 203 5.8 99760 86
2002-02-28 10:08 51°18.305 2°49.876 14 203 5.8 99760 86
2002-02-28 10:09 51°18.307 2°49.873 14.7 203 5.8 99760 86
2002-02-28 10:10 51°18.31 2°49.871 14.4 200 5.9 99760 86
2002-02-28 10:11 51°18.31 2°49.874 14.1 199 6 99760 87
2002-02-28 10:12 51°18.31 2°49.874 14.7 198 6.1 99760 86
2002-02-28 10:13 51°18.312 2°49.872 14.9 195 6.1 99760 86
2002-02-28 10:14 51°18.313 2°49.873 12.9 200 6.1 99760 86
2002-02-28 10:15 51°18.312 2°49.872 14.5 191 6.2 99760 86
2002-02-28 10:16 51°18.314 2°49.87 14.1 197 6.1 99760 85
2002-02-28 10:17 51°18.315 2°49.869 15.1 196 6.2 99770 85
2002-02-28 10:18 51°18.315 2°49.868 14.5 192 6.1 99770 85
2002-02-28 10:19 51°18.316 2°49.869 13.8 193 6.1 99780 85
2002-02-28 10:20 51°18.316 2°49.868 13.7 181 6 99770 85
2002-02-28 10:21 51°18.317 2°49.867 13.9 183 6.1 99760 85
2002-02-28 10:22 51°18.318 2°49.866 13.7 180 6 99770 85
2002-02-28 10:23 51°18.319 2°49.865 13.3 184 6.1 99770 86
2002-02-28 10:24 51°18.318 2°49.866 13 180 6.2 99780 86
2002-02-28 10:25 51°18.318 2°49.866 13.4 180 6.2 99780 85
2002-02-28 10:26 51°18.319 2°49.866 13.9 184 6.2 99760 85
2002-02-28 10:27 51°18.32 2°49.863 14.4 188 6.1 99780 85
2002-02-28 10:28 51°18.321 2°49.861 11.8 183 6 99780 85
2002-02-28 10:29 51°18.321 2°49.858 12.8 191 6 99780 85
2002-02-28 10:30 51°18.322 2°49.857 12.5 195 5.9 99780 85
2002-02-28 10:31 51°18.322 2°49.858 10.9 187 5.9 99790 85
2002-02-28 10:32 51°18.323 2°49.858 11.7 183 5.8 99790 85
2002-02-28 10:33 51°18.322 2°49.863 9.2 180 5.8 99790 86
2002-02-28 10:34 51°18.321 2°49.866 11.1 179 5.8 99790 86
2002-02-28 10:35 51°18.319 2°49.866 10.5 171 5.9 99800 86
2002-02-28 10:36 51°18.317 2°49.874 8.9 161 5.9 99800 86
2002-02-28 10:37 51°18.313 2°49.878 10.9 163 6 99800 87
2002-02-28 10:38 51°18.312 2°49.878 11.3 179 6.1 99800 87
2002-02-28 10:39 51°18.314 2°49.873 11.8 188 6.2 99790 87
2002-02-28 10:40 51°18.314 2°49.872 11.4 185 6.2 99820 86
2002-02-28 10:41 51°18.313 2°49.877 7.7 157 6.3 99810 86
2002-02-28 10:42 51°18.309 2°49.881 9.4 144 6.4 99820 86
2002-02-28 10:43 51°18.305 2°49.884 8 159 6.4 99820 86
2002-02-28 10:44 51°18.305 2°49.884 11.6 169 6.5 99820 86
2002-02-28 10:45 51°18.306 2°49.882 12.7 173 6.6 99820 86
2002-02-28 10:46 51°18.309 2°49.881 12.6 163 6.8 99810 87
2002-02-28 10:47 51°18.307 2°49.883 12.2 156 6.9 99820 86
2002-02-28 10:48 51°18.303 2°49.886 11 145 7 99810 86
2002-02-28 10:49 51°18.3 2°49.887 14.2 156 7.1 99820 86
2002-02-28 10:50 51°18.302 2°49.886 14.8 166 7.2 99810 85
2002-02-28 10:51 51°18.303 2°49.884 12.1 169 7.1 99810 85
2002-02-28 10:52 51°18.304 2°49.884 12.8 155 7.2 99810 85
2002-02-28 10:53 51°18.305 2°49.884 10 156 7.2 99820 85
2002-02-28 10:54 51°18.305 2°49.886 15.6 160 7.2 99820 85
2002-02-28 10:55 51°18.306 2°49.883 15.7 166 7.1 99810 85
2002-02-28 10:56 51°18.307 2°49.883 13.3 160 7.1 99820 85
2002-02-28 10:57 51°18.306 2°49.885 16.6 158 7.1 99830 85
2002-02-28 10:58 51°18.308 2°49.883 14.7 158 7 99820 85
2002-02-28 10:59 51°18.307 2°49.884 12.2 161 7.2 99830 85
2002-02-28 11:00 51°18.305 2°49.885 13.1 152 7.2 99820 85
2002-02-28 11:01 51°18.304 2°49.887 13.7 165 7.2 99840 85
2002-02-28 11:02 51°18.306 2°49.885 13.5 166 7.3 99830 84
2002-02-28 11:03 51°18.309 2°49.882 12.9 162 7.2 99830 84
2002-02-28 11:04 51°18.309 2°49.882 11.9 158 7.3 99830 84
2002-02-28 11:05 51°18.307 2°49.884 11.6 151 7.2 99830 84
2002-02-28 11:06 51°18.306 2°49.884 12 158 7.2 99830 84
2002-02-28 11:07 51°18.305 2°49.886 12.1 166 7.2 99830 84
2002-02-28 11:08 51°18.307 2°49.884 12.4 172 7.2 99830 84
2002-02-28 11:09 51°18.306 2°49.885 13.6 160 7.2 99830 85
2002-02-28 11:10 51°18.306 2°49.886 15 161 7.2 99830 84
2002-02-28 11:11 51°18.307 2°49.885 14.3 162 7.1 99820 84
2002-02-28 11:12 51°18.308 2°49.883 15.6 170 7.1 99830 84
2002-02-28 11:13 51°18.31 2°49.882 14.9 162 7 99810 85
2002-02-28 11:14 51°18.31 2°49.882 13.2 166 7 99820 84
2002-02-28 11:15 51°18.311 2°49.881 12.9 165 7.1 99830 85
2002-02-28 11:16 51°18.31 2°49.882 14.1 161 7.1 99830 84
2002-02-28 11:17 51°18.308 2°49.884 13.1 158 7.2 99830 84
2002-02-28 11:18 51°18.306 2°49.884 13.3 153 7.2 99830 84
2002-02-28 11:19 51°18.305 2°49.887 13 153 7.2 99840 84
2002-02-28 11:20 51°18.306 2°49.887 11 160 7.2 99830 84
2002-02-28 11:21 51°18.308 2°49.885 12.6 160 7.2 99840 84
2002-02-28 11:22 51°18.309 2°49.885 11.2 150 7.2 99830 83
2002-02-28 11:23 51°18.306 2°49.886 10.1 144 7.2 99840 82
2002-02-28 11:24 51°18.304 2°49.888 10.3 151 7.2 99850 82
2002-02-28 11:25 51°18.305 2°49.888 13.2 157 7.2 99850 82
2002-02-28 11:26 51°18.307 2°49.887 11.2 159 7.2 99850 82
2002-02-28 11:27 51°18.309 2°49.885 11.6 157 7.2 99840 82
2002-02-28 11:28 51°18.309 2°49.885 10.5 155 7.1 99850 82
2002-02-28 11:29 51°18.306 2°49.887 10.6 146 7.2 99850 83
2002-02-28 11:30 51°18.306 2°49.888 9.3 153 7.3 99850 84
2002-02-28 11:31 51°18.307 2°49.886 10.2 152 7.3 99850 84
2002-02-28 11:32 51°18.308 2°49.886 11.1 148 7.3 99850 83
2002-02-28 11:33 51°18.308 2°49.886 10.1 160 7.3 99850 83
2002-02-28 11:34 51°18.308 2°49.886 10.5 154 7.2 99850 83
2002-02-28 11:35 51°18.31 2°49.887 13.2 151 7.2 99850 83
2002-02-28 11:36 51°18.31 2°49.888 12.5 162 7.2 99850 83
2002-02-28 11:37 51°18.309 2°49.901 12.9 157 7.2 99850 84
2002-02-28 11:38 51°18.311 2°49.901 12.7 166 7.2 99830 83
2002-02-28 11:39 51°18.312 2°49.899 11.7 166 7.2 99840 84
2002-02-28 11:40 51°18.314 2°49.899 11.1 163 7.2 99830 84
2002-02-28 11:41 51°18.313 2°49.901 13.8 152 7.2 99840 84
2002-02-28 11:42 51°18.312 2°49.902 11.5 155 7.2 99850 83
2002-02-28 11:43 51°18.314 2°49.9 11.9 166 7.3 99830 84
2002-02-28 11:44 51°18.313 2°49.902 12.8 158 7.3 99840 83
2002-02-28 11:45 51°18.311 2°49.905 16 149 7.3 99840 83
2002-02-28 11:46 51°18.313 2°49.903 11.8 159 7.2 99850 83
2002-02-28 11:47 51°18.316 2°49.902 11.7 156 7.3 99850 84
2002-02-28 11:48 51°18.316 2°49.902 11.9 158 7.2 99850 83
2002-02-28 11:49 51°18.316 2°49.901 12.5 155 7.3 99850 83
2002-02-28 11:50 51°18.316 2°49.902 10.4 149 7.4 99850 83
2002-02-28 11:51 51°18.312 2°49.906 11.2 155 7.5 99850 83
2002-02-28 11:52 51°18.313 2°49.903 10.2 163 7.5 99840 83
2002-02-28 11:53 51°18.313 2°49.904 10.6 149 7.5 99850 83
2002-02-28 11:54 51°18.31 2°49.905 13.6 155 7.5 99840 83
2002-02-28 11:55 51°18.312 2°49.905 11.3 153 7.5 99850 82
2002-02-28 11:56 51°18.314 2°49.903 11 158 7.6 99840 83
2002-02-28 11:57 51°18.313 2°49.904 11 155 7.6 99850 82
2002-02-28 11:58 51°18.313 2°49.904 12.5 152 7.6 99850 82
2002-02-28 11:59 51°18.315 2°49.902 10.6 151 7.6 99850 82
2002-02-28 12:00 51°18.315 2°49.903 8.8 152 7.6 99840 82
2002-02-28 12:01 51°18.316 2°49.903 11.1 149 7.7 99850 82
2002-02-28 12:02 51°18.314 2°49.907 11.4 141 7.6 99850 82
2002-02-28 12:03 51°18.312 2°49.906 10.2 150 7.6 99850 81
2002-02-28 12:04 51°18.315 2°49.903 12.5 150 7.7 99850 81
2002-02-28 12:05 51°18.317 2°49.905 10.3 148 7.7 99850 81
2002-02-28 12:06 51°18.315 2°49.907 10.4 147 7.7 99850 82
2002-02-28 12:07 51°18.316 2°49.906 11.2 158 7.7 99850 81
2002-02-28 12:08 51°18.318 2°49.905 10 148 7.8 99840 81
2002-02-28 12:09 51°18.315 2°49.908 11 149 7.8 99850 81
2002-02-28 12:10 51°18.315 2°49.913 12.1 151 7.8 99850 81
2002-02-28 12:11 51°18.318 2°49.911 12.2 151 7.8 99850 81
2002-02-28 12:12 51°18.318 2°49.913 10.2 147 7.8 99860 81
2002-02-28 12:13 51°18.315 2°49.916 10.3 148 7.8 99860 81
2002-02-28 12:14 51°18.315 2°49.915 11.1 149 7.9 99850 81
2002-02-28 12:15 51°18.316 2°49.914 9.9 156 7.9 99860 81
2002-02-28 12:16 51°18.315 2°49.914 9.8 144 8 99850 81
2002-02-28 12:17 51°18.312 2°49.916 9.7 151 8 99860 81
2002-02-28 12:18 51°18.316 2°49.913 9.8 159 8 99860 81
2002-02-28 12:19 51°18.317 2°49.913 10 144 8 99860 82
2002-02-28 12:20 51°18.317 2°49.915 8.6 137 8 99870 81
2002-02-28 12:21 51°18.317 2°49.914 12.3 143 8 99870 80
2002-02-28 12:22 51°18.316 2°49.913 12.3 146 8 99870 78
2002-02-28 12:23 51°18.317 2°49.915 12.7 143 8 99870 78
2002-02-28 12:24 51°18.318 2°49.914 10.5 135 8 99870 77
2002-02-28 12:25 51°18.317 2°49.915 11.2 139 8.1 99860 75
2002-02-28 12:26 51°18.314 2°49.917 11.1 135 8.1 99860 74
2002-02-28 12:27 51°18.314 2°49.918 10 140 8.2 99860 74
2002-02-28 12:28 51°18.317 2°49.918 10.9 142 8.2 99860 74
2002-02-28 12:29 51°18.318 2°49.918 8.5 138 8.3 99860 74
2002-02-28 12:30 51°18.318 2°49.917 10.6 139 8.3 99870 74
2002-02-28 12:31 51°18.315 2°49.917 12.1 131 8.2 99870 73
2002-02-28 12:32 51°18.314 2°49.921 12.9 134 8.3 99870 73
2002-02-28 12:33 51°18.311 2°49.923 11.8 134 8.2 99870 73
2002-02-28 12:34 51°18.313 2°49.919 13.3 144 8.2 99860 72
2002-02-28 12:35 51°18.317 2°49.918 11.4 138 8.2 99860 72
2002-02-28 12:36 51°18.317 2°49.919 10.2 137 8.2 99860 73
2002-02-28 12:37 51°18.318 2°49.918 11.7 141 8.3 99870 74
2002-02-28 12:38 51°18.318 2°49.919 13.8 142 8.2 99860 72
2002-02-28 12:39 51°18.319 2°49.916 9.9 148 8.2 99870 72
2002-02-28 12:40 51°18.32 2°49.919 12.3 138 8.3 99860 73
2002-02-28 12:41 51°18.316 2°49.921 11.4 133 8.2 99860 72
2002-02-28 12:42 51°18.315 2°49.92 10.7 144 8.3 99880 74
2002-02-28 12:43 51°18.319 2°49.919 13.2 146 8.2 99850 73
2002-02-28 12:44 51°18.321 2°49.92 12.3 141 8.2 99850 72
2002-02-28 12:45 51°18.319 2°49.924 12 133 8.2 99880 73
2002-02-28 12:46 51°18.319 2°49.93 12.9 138 8.2 99850 72
2002-02-28 12:47 51°18.318 2°49.931 12.9 138 8.2 99870 72
2002-02-28 12:48 51°18.322 2°49.927 12.8 143 8.2 99850 70
2002-02-28 12:49 51°18.322 2°49.928 13.8 129 8.2 99870 71
2002-02-28 12:50 51°18.315 2°49.923 12.8 132 8.2 99880 70
2002-02-28 12:51 51°18.312 2°49.913 10.8 140 8.2 99870 70
2002-02-28 12:52 51°18.309 2°49.897 13.5 136 8.3 99870 72
2002-02-28 12:53 51°18.304 2°49.89 15.6 139 8.2 99870 71
2002-02-28 12:54 51°18.305 2°49.887 12.9 133 8.2 99850 71
2002-02-28 12:55 51°18.309 2°49.908 12.3 129 8.2 99870 72
2002-02-28 12:56 51°18.318 2°49.952 12.4 126 8.3 99870 73
2002-02-28 12:57 51°18.326 2°50.007 11.8 73 8.2 99850 72
2002-02-28 12:58 51°18.275 2°50.178 10.2 55 8.1 99880 74
2002-02-28 12:59 51°18.168 2°50.492 12.9 54 8.1 99870 74
2002-02-28 13:00 51°18.057 2°50.826 11.2 59 8.1 99860 75
2002-02-28 13:01 51°17.933 2°51.15 11.6 62 8.1 99860 76
2002-02-28 13:02 51°17.808 2°51.465 10.9 66 8.1 99870 76
2002-02-28 13:03 51°17.672 2°51.767 11.2 59 8 99860 76
2002-02-28 13:04 51°17.532 2°52.059 10.8 74 8 99860 76
2002-02-28 13:05 51°17.377 2°52.328 13 64 8 99870 77
2002-02-28 13:06 51°17.223 2°52.582 14 75 7.9 99860 77
2002-02-28 13:07 51°17.063 2°52.836 13.8 69 8 99880 77
2002-02-28 13:08 51°16.909 2°53.107 12.8 67 7.9 99860 77
2002-02-28 13:09 51°16.753 2°53.382 12.6 78 8 99870 78
2002-02-28 13:10 51°16.602 2°53.669 12.6 75 7.9 99870 78
2002-02-28 13:11 51°16.456 2°53.968 11.9 75 8 99870 79
2002-02-28 13:12 51°16.306 2°54.269 11.6 75 7.9 99870 78
2002-02-28 13:13 51°16.162 2°54.566 11.1 82 7.9 99880 79
2002-02-28 13:14 51°16.011 2°54.845 12 75 7.9 99870 79
2002-02-28 13:15 51°15.879 2°55.145 9.5 61 7.9 99880 79
2002-02-28 13:16 51°15.832 2°55.5 6.4 41 7.9 99900 79
2002-02-28 13:17 51°15.776 2°55.635 10.8 100 8 99890 79
2002-02-28 13:18 51°15.748 2°55.614 10.9 137 8 99890 79
2002-02-28 13:19 51°15.758 2°55.641 10 135 8 99900 78
2002-02-28 13:20 51°15.77 2°55.678 9.1 141 8.1 99900 78
2002-02-28 13:21 51°15.77 2°55.683 10.6 134 8.1 99890 77
2002-02-28 13:22 51°15.769 2°55.685 11.4 144 8.1 99890 77
2002-02-28 13:23 51°15.771 2°55.682 11.8 139 8.1 99900 77
2002-02-28 13:24 51°15.774 2°55.679 11.2 139 8.1 99890 76
2002-02-28 13:25 51°15.775 2°55.68 9.7 137 8.1 99900 76
2002-02-28 13:26 51°15.771 2°55.684 10.2 129 8.1 99890 74
2002-02-28 13:27 51°15.769 2°55.685 10.3 132 8.1 99900 74
2002-02-28 13:28 51°15.77 2°55.684 9.8 131 8.2 99900 75
2002-02-28 13:29 51°15.77 2°55.684 11.7 135 8.2 99900 75
2002-02-28 13:30 51°15.771 2°55.682 10 140 8.2 99900 74
2002-02-28 13:31 51°15.773 2°55.681 12.1 138 8.2 99890 74
2002-02-28 13:32 51°15.774 2°55.681 11.1 130 8.2 99900 75
2002-02-28 13:33 51°15.773 2°55.682 9.5 138 8.2 99900 75
2002-02-28 13:34 51°15.772 2°55.684 9.4 128 8.2 99890 74
2002-02-28 13:35 51°15.772 2°55.683 8.9 136 8.2 99900 75
2002-02-28 13:36 51°15.771 2°55.683 7.3 140 8.2 99900 75
2002-02-28 13:37 51°15.771 2°55.683 8.6 133 8.3 99900 75
2002-02-28 13:38 51°15.77 2°55.684 8.9 128 8.2 99900 75
2002-02-28 13:39 51°15.768 2°55.685 10.5 132 8.1 99890 74
2002-02-28 13:40 51°15.77 2°55.684 7.7 136 8.2 99900 75
2002-02-28 13:41 51°15.772 2°55.681 8.1 141 8.2 99910 76
2002-02-28 13:42 51°15.773 2°55.682 8.3 140 8.2 99900 76
2002-02-28 13:43 51°15.772 2°55.681 8.3 144 8.2 99910 77
2002-02-28 13:44 51°15.773 2°55.681 8.3 147 8.1 99910 76
2002-02-28 13:45 51°15.776 2°55.678 10.3 174 8.1 99910 77
2002-02-28 13:46 51°15.778 2°55.675 12.1 161 8 99880 77
2002-02-28 13:47 51°15.78 2°55.673 12.1 148 7.9 99890 78
2002-02-28 13:48 51°15.778 2°55.677 13 140 7.8 99890 78
2002-02-28 13:49 51°15.777 2°55.679 13.5 157 7.6 99880 78
2002-02-28 13:50 51°15.78 2°55.674 13.5 161 7.4 99870 78
2002-02-28 13:51 51°15.78 2°55.675 13.5 149 7.4 99900 79
2002-02-28 13:52 51°15.777 2°55.677 12.7 155 7.3 99890 79
2002-02-28 13:53 51°15.778 2°55.675 13 160 7.2 99890 79
2002-02-28 13:54 51°15.782 2°55.671 12.5 159 7.2 99900 79
2002-02-28 13:55 51°15.783 2°55.671 13.6 150 7.2 99890 79
2002-02-28 13:56 51°15.781 2°55.673 11.2 153 7.2 99910 80
2002-02-28 13:57 51°15.781 2°55.673 13.3 149 7.2 99910 79
2002-02-28 13:58 51°15.781 2°55.672 11.2 157 7.1 99890 79
2002-02-28 13:59 51°15.781 2°55.673 14.1 156 7.1 99910 80
2002-02-28 14:00 51°15.782 2°55.671 12.8 158 7 99870 79
2002-02-28 14:01 51°15.782 2°55.671 11 156 7 99880 79
2002-02-28 14:02 51°15.78 2°55.674 13.9 153 7 99900 79
2002-02-28 14:03 51°15.78 2°55.674 13.8 158 6.9 99870 79
2002-02-28 14:04 51°15.782 2°55.672 14.1 153 7 99880 80
2002-02-28 14:05 51°15.781 2°55.673 13.3 150 6.9 99900 80
2002-02-28 14:06 51°15.779 2°55.676 13.8 144 6.8 99890 79
2002-02-28 14:07 51°15.78 2°55.675 11.5 159 6.8 99900 79
2002-02-28 14:08 51°15.782 2°55.67 12.2 163 6.8 99900 80
2002-02-28 14:09 51°15.781 2°55.672 13 153 6.9 99910 81
2002-02-28 14:10 51°15.782 2°55.671 12 167 6.8 99880 79
2002-02-28 14:11 51°15.783 2°55.668 11.3 159 6.7 99880 79
2002-02-28 14:12 51°15.784 2°55.668 13.6 153 6.7 99890 80
2002-02-28 14:13 51°15.781 2°55.674 11.2 144 6.8 99910 80
2002-02-28 14:14 51°15.777 2°55.678 12.7 153 6.7 99920 79
2002-02-28 14:15 51°15.778 2°55.677 10.9 167 6.7 99880 80
2002-02-28 14:16 51°15.781 2°55.672 12.9 159 6.7 99880 80
2002-02-28 14:17 51°15.78 2°55.673 11.7 146 6.7 99900 80
2002-02-28 14:18 51°15.78 2°55.674 12.1 154 6.7 99910 80
2002-02-28 14:19 51°15.779 2°55.674 11.2 159 6.7 99900 80
2002-02-28 14:20 51°15.779 2°55.674 12.5 165 6.7 99900 80
2002-02-28 14:21 51°15.78 2°55.673 10.3 158 6.6 99900 79
2002-02-28 14:22 51°15.781 2°55.672 12.5 155 6.7 99910 80
2002-02-28 14:23 51°15.78 2°55.674 10.1 142 6.7 99930 80
2002-02-28 14:24 51°15.776 2°55.677 12.4 146 6.7 99910 80
2002-02-28 14:25 51°15.778 2°55.676 12.4 158 6.6 99910 79
2002-02-28 14:26 51°15.78 2°55.674 13.7 152 6.6 99900 80
2002-02-28 14:27 51°15.78 2°55.674 13.3 145 6.6 99920 79
2002-02-28 14:28 51°15.778 2°55.674 9.7 151 6.6 99920 80
2002-02-28 14:29 51°15.779 2°55.675 13.3 163 6.7 99900 80
2002-02-28 14:30 51°15.781 2°55.673 11.3 156 6.7 99920 80
2002-02-28 14:31 51°15.782 2°55.671 12.5 145 6.6 99900 80
2002-02-28 14:32 51°15.779 2°55.674 10.3 145 6.6 99920 80
2002-02-28 14:33 51°15.777 2°55.677 10.3 154 6.6 99930 81
2002-02-28 14:34 51°15.78 2°55.672 10.2 159 6.6 99910 81
2002-02-28 14:35 51°15.781 2°55.671 12.3 153 6.6 99910 81
2002-02-28 14:36 51°15.78 2°55.673 11.6 147 6.6 99930 80
2002-02-28 14:37 51°15.78 2°55.674 12.1 153 6.7 99920 80
2002-02-28 14:38 51°15.78 2°55.673 9.1 143 6.6 99920 81
2002-02-28 14:39 51°15.78 2°55.675 10.2 145 6.7 99940 81
2002-02-28 14:40 51°15.777 2°55.677 8.7 150 6.7 99920 81
2002-02-28 14:41 51°15.777 2°55.677 10.9 148 6.7 99910 81
2002-02-28 14:42 51°15.778 2°55.676 9.7 150 6.7 99920 81
2002-02-28 14:43 51°15.779 2°55.674 10.9 148 6.7 99930 81
2002-02-28 14:44 51°15.779 2°55.674 12.5 147 6.7 99910 80
2002-02-28 14:45 51°15.779 2°55.675 12.3 142 6.7 99930 80
2002-02-28 14:46 51°15.778 2°55.675 11.5 143 6.7 99920 80
2002-02-28 14:47 51°15.778 2°55.676 12 144 6.8 99930 80
2002-02-28 14:48 51°15.777 2°55.677 10.4 148 6.9 99930 80
2002-02-28 14:49 51°15.777 2°55.676 12.3 149 6.9 99920 79
2002-02-28 14:50 51°15.779 2°55.674 12.4 151 6.8 99920 77
2002-02-28 14:51 51°15.781 2°55.672 15.4 142 6.7 99900 76
2002-02-28 14:52 51°15.778 2°55.677 14.1 129 6.7 99920 76
2002-02-28 14:53 51°15.774 2°55.681 12.3 134 6.7 99920 75
2002-02-28 14:54 51°15.774 2°55.68 13.2 148 6.7 99920 76
2002-02-28 14:55 51°15.777 2°55.677 13.5 149 6.6 99900 75
2002-02-28 14:56 51°15.779 2°55.675 13.4 155 6.6 99900 75
2002-02-28 14:57 51°15.779 2°55.675 10.5 142 6.6 99920 76
2002-02-28 14:58 51°15.779 2°55.675 9.1 147 6.6 99920 75
2002-02-28 14:59 51°15.779 2°55.675 10.6 145 6.6 99910 75
2002-02-28 15:00 51°15.78 2°55.674 11.9 142 6.6 99920 75
2002-02-28 15:01 51°15.778 2°55.676 12.1 144 6.7 99910 76
2002-02-28 15:02 51°15.778 2°55.676 12.1 157 6.6 99930 76
2002-02-28 15:03 51°15.779 2°55.675 12.1 152 6.6 99910 76
2002-02-28 15:04 51°15.78 2°55.676 13.1 153 6.6 99920 76
2002-02-28 15:05 51°15.779 2°55.675 11.2 155 6.6 99910 77
2002-02-28 15:06 51°15.781 2°55.674 11.6 147 6.6 99900 77
2002-02-28 15:07 51°15.781 2°55.674 10.5 155 6.6 99900 77
2002-02-28 15:08 51°15.781 2°55.672 10.8 148 6.5 99910 77
2002-02-28 15:09 51°15.781 2°55.672 11.8 139 6.5 99920 77
2002-02-28 15:10 51°15.779 2°55.676 10.9 145 6.5 99910 77
2002-02-28 15:11 51°15.777 2°55.679 12.3 146 6.5 99910 77
2002-02-28 15:12 51°15.776 2°55.68 12.5 142 6.5 99930 77
2002-02-28 15:13 51°15.775 2°55.679 10.3 142 6.5 99930 77
2002-02-28 15:14 51°15.776 2°55.678 11.4 149 6.4 99910 77
2002-02-28 15:15 51°15.779 2°55.676 11 157 6.5 99920 77
2002-02-28 15:16 51°15.78 2°55.674 10.9 140 6.5 99920 76
2002-02-28 15:17 51°15.777 2°55.677 10.3 142 6.4 99940 77
2002-02-28 15:18 51°15.775 2°55.68 10.1 141 6.5 99920 77
2002-02-28 15:19 51°15.775 2°55.68 10.1 158 6.5 99920 77
2002-02-28 15:20 51°15.776 2°55.678 8.7 152 6.5 99920 77
2002-02-28 15:21 51°15.778 2°55.676 10.8 146 6.5 99910 77
2002-02-28 15:22 51°15.779 2°55.675 10.7 144 6.5 99910 77
2002-02-28 15:23 51°15.777 2°55.677 10.4 141 6.5 99920 76
2002-02-28 15:24 51°15.777 2°55.678 10.7 142 6.5 99920 76
2002-02-28 15:25 51°15.777 2°55.678 10.5 140 6.5 99930 75
2002-02-28 15:26 51°15.776 2°55.679 10.8 142 6.6 99910 76
2002-02-28 15:27 51°15.776 2°55.679 10.8 140 6.7 99920 76
2002-02-28 15:28 51°15.776 2°55.679 10 146 6.7 99920 76
2002-02-28 15:29 51°15.777 2°55.679 13.2 148 6.8 99920 77
2002-02-28 15:30 51°15.776 2°55.678 14.8 140 6.8 99920 77
2002-02-28 15:31 51°15.776 2°55.679 12.8 143 6.7 99910 76
2002-02-28 15:32 51°15.774 2°55.68 10.8 139 6.7 99920 77
2002-02-28 15:33 51°15.774 2°55.682 11.9 147 6.7 99930 77
2002-02-28 15:34 51°15.776 2°55.679 10.9 152 6.7 99930 78
2002-02-28 15:35 51°15.777 2°55.677 13.6 151 6.7 99920 77
2002-02-28 15:36 51°15.778 2°55.676 13 151 6.7 99940 78
2002-02-28 15:37 51°15.779 2°55.676 12.8 141 6.6 99930 77
2002-02-28 15:38 51°15.779 2°55.676 11.9 150 6.6 99930 79
2002-02-28 15:39 51°15.778 2°55.676 10.5 154 6.5 99940 78
2002-02-28 15:40 51°15.778 2°55.676 10.7 148 6.4 99930 78
2002-02-28 15:41 51°15.777 2°55.676 11.7 149 6.4 99940 79
2002-02-28 15:42 51°15.779 2°55.675 12.9 153 6.4 99930 79
2002-02-28 15:43 51°15.781 2°55.671 10.1 148 6.3 99930 78
2002-02-28 15:44 51°15.782 2°55.671 9.6 148 6.3 99930 79
2002-02-28 15:45 51°15.78 2°55.672 10 144 6.3 99950 79
2002-02-28 15:46 51°15.778 2°55.676 10.9 143 6.3 99940 79
2002-02-28 15:47 51°15.777 2°55.678 10.2 144 6.3 99940 79
2002-02-28 15:48 51°15.778 2°55.675 11.4 164 6.3 99940 79
2002-02-28 15:49 51°15.78 2°55.671 11.2 165 6.3 99940 79
2002-02-28 15:50 51°15.782 2°55.668 9.9 164 6.3 99940 79
2002-02-28 15:51 51°15.783 2°55.667 9.7 163 6.3 99950 80
2002-02-28 15:52 51°15.783 2°55.669 10.1 152 6.3 99940 80
2002-02-28 15:53 51°15.78 2°55.671 10.9 151 6.2 99950 80
2002-02-28 15:54 51°15.78 2°55.673 10.1 158 6.2 99950 80
2002-02-28 15:55 51°15.781 2°55.67 8.9 173 6.2 99950 80
2002-02-28 15:56 51°15.783 2°55.664 8.5 169 6.2 99940 81
2002-02-28 15:57 51°15.785 2°55.661 9.5 160 6.2 99950 81
2002-02-28 15:58 51°15.784 2°55.666 9.4 148 6.1 99930 81
2002-02-28 15:59 51°15.781 2°55.669 11.9 146 6.1 99960 82
2002-02-28 16:00 51°15.781 2°55.673 8.3 156 6.2 99950 82
2002-02-28 16:01 51°15.781 2°55.671 11.8 158 6.2 99960 82
2002-02-28 16:02 51°15.782 2°55.666 10.2 165 6.1 99960 82
2002-02-28 16:03 51°15.784 2°55.664 9.2 169 6.1 99960 82
2002-02-28 16:04 51°15.785 2°55.662 9.2 158 6 99950 82
2002-02-28 16:05 51°15.785 2°55.666 9.9 151 6 99960 82
2002-02-28 16:06 51°15.782 2°55.67 8.3 149 6.1 99960 83
2002-02-28 16:07 51°15.782 2°55.672 9.4 151 6.1 99960 83
2002-02-28 16:08 51°15.78 2°55.673 10.4 157 6.1 99950 83
2002-02-28 16:09 51°15.78 2°55.673 10.8 153 6 99960 83
2002-02-28 16:10 51°15.781 2°55.673 11.4 158 6 99940 83
2002-02-28 16:11 51°15.782 2°55.67 11.7 153 6 99970 83
2002-02-28 16:12 51°15.782 2°55.669 8.8 157 6 99950 83
2002-02-28 16:13 51°15.783 2°55.668 10.1 151 6 99960 83
2002-02-28 16:14 51°15.783 2°55.668 10.5 150 6 99960 83
2002-02-28 16:15 51°15.784 2°55.667 8.2 153 5.9 99960 83
2002-02-28 16:16 51°15.783 2°55.668 10.9 154 6 99950 83
2002-02-28 16:17 51°15.781 2°55.671 9.8 152 6 99970 83
2002-02-28 16:18 51°15.781 2°55.672 10.2 160 6 99950 84
2002-02-28 16:19 51°15.782 2°55.669 11.3 166 6 99960 84
2002-02-28 16:20 51°15.784 2°55.664 10.3 171 6 99960 84
2002-02-28 16:21 51°15.785 2°55.662 10.1 158 6 99950 84
2002-02-28 16:22 51°15.784 2°55.665 11 142 6 99970 84
2002-02-28 16:23 51°15.784 2°55.669 10.1 133 6 99960 84
2002-02-28 16:24 51°15.782 2°55.67 10 151 6 99960 84
2002-02-28 16:25 51°15.783 2°55.67 8.4 154 6 99950 84
2002-02-28 16:26 51°15.783 2°55.667 8.9 163 6 99960 84
2002-02-28 16:27 51°15.784 2°55.665 8.6 159 6 99950 84
2002-02-28 16:28 51°15.785 2°55.663 8.5 151 6 99960 84
2002-02-28 16:29 51°15.785 2°55.666 10.3 145 6 99960 84
2002-02-28 16:30 51°15.785 2°55.665 11 149 6 99940 84
2002-02-28 16:31 51°15.785 2°55.665 8.7 140 6 99950 84
2002-02-28 16:32 51°15.785 2°55.665 10 147 6 99960 84
2002-02-28 16:33 51°15.784 2°55.665 9.6 154 6.1 99960 84
2002-02-28 16:34 51°15.785 2°55.665 9.5 151 6 99960 84
2002-02-28 16:35 51°15.784 2°55.666 9.3 147 6.1 99970 84
2002-02-28 16:36 51°15.785 2°55.667 11.1 143 6.1 99960 84
2002-02-28 16:37 51°15.784 2°55.667 8.1 133 6.1 99960 84
2002-02-28 16:38 51°15.783 2°55.668 8.5 130 6.2 99970 85
2002-02-28 16:39 51°15.778 2°55.667 13 126 6.1 99970 83
2002-02-28 16:40 51°15.764 2°55.658 9.5 126 6.1 99970 83
2002-02-28 16:41 51°15.756 2°55.653 8.2 133 6.2 99960 83
2002-02-28 16:42 51°15.751 2°55.649 10.5 141 6.2 99970 83
2002-02-28 16:43 51°15.755 2°55.642 10.3 158 6.1 99960 83
2002-02-28 16:44 51°15.765 2°55.64 10.5 195 6.1 99940 83
2002-02-28 16:45 51°15.779 2°55.634 10.4 195 6.1 99970 82
2002-02-28 16:46 51°15.719 2°55.527 14.9 134 6.2 99930 83
2002-02-28 16:47 51°15.554 2°55.398 18.8 132 6.2 99930 83
2002-02-28 16:48 51°15.357 2°55.267 16.4 129 6.2 99950 82
2002-02-28 16:49 51°15.152 2°55.158 15.5 129 6.2 99940 82
2002-02-28 16:50 51°14.943 2°55.059 15.2 127 6.1 99930 81
2002-02-28 16:51 51°14.732 2°54.973 16.1 128 6.1 99950 81
2002-02-28 16:52 51°14.519 2°54.95 15.4 106 6 99940 81
2002-02-28 16:53 51°14.342 2°55.112 7.7 91 6 99950 81
2002-02-28 16:54 51°14.221 2°55.32 6.8 119 5.9 99980 81
2002-02-28 16:55 51°14.093 2°55.447 7.4 111 5.9 99980 81
2002-02-28 16:56 51°14.011 2°55.495 8 111 5.9 99990 81
2002-02-28 16:57 51°13.93 2°55.56 6 119 5.8 99990 81
2002-02-28 16:58 51°13.824 2°55.646 8.1 125 5.8 99990 81
2002-02-28 16:59 51°13.757 2°55.717 4.4 86 5.8 99990 82
2002-02-28 17:00 51°13.722 2°55.785 5.2 83 5.7 100000 82
2002-02-28 17:01 51°13.701 2°55.848 3.7 93 5.7 100000 82
2002-02-28 17:02 51°13.689 2°55.902 5.4 60 5.7 100000 82
2002-02-28 17:03 51°13.687 2°55.904 5.3 39 5.7 100010 82